Airport ICAO


18:30 UTC

11°C

Broken clouds


An affordable passengers' Moving Map for your aircraft. Made for the iPad and the iPhone
More information here

LFPN Le Noble


Toussous FRANCE   VFR


METAR LFPN 231800Z AUTO 03009KT 9999 BKN030 BKN036 11/05 Q1029 NOSIG 0h30min

TAF LFPN 231700Z 2318/2403 01008KT 9999 NSW BKN030 TEMPO 2323/2403 3000 BR BKN006 PROB40 TEMPO 2401/2403 0600 BCFG BKN002 1h30min





NOTAMS

OPEN